sensor_id;sensor_type;location;lat;lon;timestamp;P1;durP1;ratioP1;P2;durP2;ratioP2
819;SDS011;392;48.838;2.322;2024-01-16T00:02:04;16.58;;;14.88;;
819;SDS011;392;48.838;2.322;2024-01-16T00:04:33;16.90;;;15.27;;
819;SDS011;392;48.838;2.322;2024-01-16T00:07:04;16.33;;;14.82;;
819;SDS011;392;48.838;2.322;2024-01-16T00:09:32;18.02;;;16.27;;
819;SDS011;392;48.838;2.322;2024-01-16T00:12:00;16.30;;;14.68;;
819;SDS011;392;48.838;2.322;2024-01-16T00:14:28;16.80;;;15.00;;
819;SDS011;392;48.838;2.322;2024-01-16T00:16:55;16.52;;;14.80;;
819;SDS011;392;48.838;2.322;2024-01-16T00:19:23;17.48;;;15.57;;
819;SDS011;392;48.838;2.322;2024-01-16T00:21:50;16.38;;;14.80;;
819;SDS011;392;48.838;2.322;2024-01-16T00:24:19;16.02;;;14.38;;
819;SDS011;392;48.838;2.322;2024-01-16T00:26:46;16.80;;;15.15;;
819;SDS011;392;48.838;2.322;2024-01-16T00:29:15;17.00;;;15.15;;
819;SDS011;392;48.838;2.322;2024-01-16T00:31:42;16.58;;;14.75;;
819;SDS011;392;48.838;2.322;2024-01-16T00:34:09;14.88;;;13.48;;
819;SDS011;392;48.838;2.322;2024-01-16T00:36:37;15.52;;;14.02;;
819;SDS011;392;48.838;2.322;2024-01-16T00:39:04;16.35;;;14.65;;
819;SDS011;392;48.838;2.322;2024-01-16T00:41:33;17.90;;;15.23;;
819;SDS011;392;48.838;2.322;2024-01-16T00:44:01;16.30;;;14.77;;
819;SDS011;392;48.838;2.322;2024-01-16T00:46:28;16.25;;;14.75;;
819;SDS011;392;48.838;2.322;2024-01-16T00:48:55;17.88;;;14.98;;
819;SDS011;392;48.838;2.322;2024-01-16T00:51:23;16.52;;;15.02;;
819;SDS011;392;48.838;2.322;2024-01-16T00:53:50;16.63;;;14.52;;
819;SDS011;392;48.838;2.322;2024-01-16T00:56:18;16.65;;;14.95;;
819;SDS011;392;48.838;2.322;2024-01-16T00:58:47;17.73;;;15.90;;
819;SDS011;392;48.838;2.322;2024-01-16T01:01:14;16.13;;;14.43;;
819;SDS011;392;48.838;2.322;2024-01-16T01:03:41;16.80;;;14.95;;
819;SDS011;392;48.838;2.322;2024-01-16T01:06:09;14.90;;;13.43;;
819;SDS011;392;48.838;2.322;2024-01-16T01:08:36;16.08;;;14.32;;
819;SDS011;392;48.838;2.322;2024-01-16T01:11:03;14.05;;;12.55;;
819;SDS011;392;48.838;2.322;2024-01-16T01:13:32;15.02;;;13.18;;
819;SDS011;392;48.838;2.322;2024-01-16T01:16:00;13.82;;;12.63;;
819;SDS011;392;48.838;2.322;2024-01-16T01:18:28;13.07;;;11.88;;
819;SDS011;392;48.838;2.322;2024-01-16T01:20:55;14.77;;;13.38;;
819;SDS011;392;48.838;2.322;2024-01-16T01:23:23;15.48;;;13.90;;
819;SDS011;392;48.838;2.322;2024-01-16T01:25:50;17.10;;;15.40;;
819;SDS011;392;48.838;2.322;2024-01-16T01:28:18;17.17;;;15.57;;
819;SDS011;392;48.838;2.322;2024-01-16T01:30:45;17.70;;;15.82;;
819;SDS011;392;48.838;2.322;2024-01-16T01:33:14;19.35;;;16.88;;
819;SDS011;392;48.838;2.322;2024-01-16T01:35:42;17.02;;;15.32;;
819;SDS011;392;48.838;2.322;2024-01-16T01:38:09;17.20;;;15.40;;
819;SDS011;392;48.838;2.322;2024-01-16T01:40:36;17.17;;;15.50;;
819;SDS011;392;48.838;2.322;2024-01-16T01:43:16;15.25;;;13.75;;
819;SDS011;392;48.838;2.322;2024-01-16T01:45:45;12.82;;;11.63;;
819;SDS011;392;48.838;2.322;2024-01-16T01:48:26;12.95;;;11.85;;
819;SDS011;392;48.838;2.322;2024-01-16T01:50:54;14.85;;;13.38;;
819;SDS011;392;48.838;2.322;2024-01-16T01:53:21;13.90;;;12.65;;
819;SDS011;392;48.838;2.322;2024-01-16T01:55:48;13.55;;;12.35;;
819;SDS011;392;48.838;2.322;2024-01-16T01:58:16;13.55;;;12.25;;
819;SDS011;392;48.838;2.322;2024-01-16T02:00:43;15.45;;;13.95;;
819;SDS011;392;48.838;2.322;2024-01-16T02:03:12;14.30;;;13.10;;
819;SDS011;392;48.838;2.322;2024-01-16T02:05:40;14.73;;;13.52;;
819;SDS011;392;48.838;2.322;2024-01-16T02:08:09;14.77;;;13.57;;
819;SDS011;392;48.838;2.322;2024-01-16T02:10:37;14.23;;;12.95;;
819;SDS011;392;48.838;2.322;2024-01-16T02:13:11;14.88;;;13.48;;
819;SDS011;392;48.838;2.322;2024-01-16T02:15:38;14.55;;;13.18;;
819;SDS011;392;48.838;2.322;2024-01-16T02:18:06;14.35;;;13.13;;
819;SDS011;392;48.838;2.322;2024-01-16T02:20:33;15.50;;;13.90;;
819;SDS011;392;48.838;2.322;2024-01-16T02:23:03;15.00;;;13.70;;
819;SDS011;392;48.838;2.322;2024-01-16T02:25:32;15.48;;;13.98;;
819;SDS011;392;48.838;2.322;2024-01-16T02:28:01;15.68;;;14.23;;
819;SDS011;392;48.838;2.322;2024-01-16T02:30:29;14.73;;;13.48;;
819;SDS011;392;48.838;2.322;2024-01-16T02:32:56;14.90;;;13.40;;
819;SDS011;392;48.838;2.322;2024-01-16T02:35:23;14.60;;;13.20;;
819;SDS011;392;48.838;2.322;2024-01-16T02:37:50;15.00;;;13.65;;
819;SDS011;392;48.838;2.322;2024-01-16T02:40:18;15.90;;;14.40;;
819;SDS011;392;48.838;2.322;2024-01-16T02:42:47;16.52;;;14.82;;
819;SDS011;392;48.838;2.322;2024-01-16T02:45:14;15.70;;;14.10;;
819;SDS011;392;48.838;2.322;2024-01-16T02:47:42;15.68;;;14.10;;
819;SDS011;392;48.838;2.322;2024-01-16T02:50:09;15.88;;;14.27;;
819;SDS011;392;48.838;2.322;2024-01-16T02:52:37;15.00;;;13.60;;
819;SDS011;392;48.838;2.322;2024-01-16T02:55:05;15.65;;;14.05;;
819;SDS011;392;48.838;2.322;2024-01-16T02:57:33;15.80;;;14.50;;
819;SDS011;392;48.838;2.322;2024-01-16T03:00:02;16.02;;;14.40;;
819;SDS011;392;48.838;2.322;2024-01-16T03:02:31;16.85;;;15.30;;
819;SDS011;392;48.838;2.322;2024-01-16T03:04:58;16.73;;;15.23;;
819;SDS011;392;48.838;2.322;2024-01-16T03:07:25;15.73;;;14.18;;
819;SDS011;392;48.838;2.322;2024-01-16T03:09:53;16.08;;;14.68;;
819;SDS011;392;48.838;2.322;2024-01-16T03:12:20;15.98;;;14.43;;
819;SDS011;392;48.838;2.322;2024-01-16T03:14:47;15.60;;;14.10;;
819;SDS011;392;48.838;2.322;2024-01-16T03:17:16;17.45;;;15.75;;
819;SDS011;392;48.838;2.322;2024-01-16T03:19:43;17.58;;;15.73;;
819;SDS011;392;48.838;2.322;2024-01-16T03:22:10;16.38;;;14.88;;
819;SDS011;392;48.838;2.322;2024-01-16T03:24:38;16.95;;;15.55;;
819;SDS011;392;48.838;2.322;2024-01-16T03:27:05;16.55;;;15.05;;
819;SDS011;392;48.838;2.322;2024-01-16T03:29:33;18.13;;;16.33;;
819;SDS011;392;48.838;2.322;2024-01-16T03:32:00;16.45;;;15.05;;
819;SDS011;392;48.838;2.322;2024-01-16T03:34:29;16.20;;;14.60;;
819;SDS011;392;48.838;2.322;2024-01-16T03:36:57;15.10;;;13.70;;
819;SDS011;392;48.838;2.322;2024-01-16T03:39:24;14.85;;;13.50;;
819;SDS011;392;48.838;2.322;2024-01-16T03:41:51;15.93;;;14.52;;
819;SDS011;392;48.838;2.322;2024-01-16T03:44:19;14.90;;;13.60;;
819;SDS011;392;48.838;2.322;2024-01-16T03:46:46;14.65;;;13.35;;
819;SDS011;392;48.838;2.322;2024-01-16T03:49:13;16.00;;;14.50;;
819;SDS011;392;48.838;2.322;2024-01-16T03:51:42;17.00;;;15.50;;
819;SDS011;392;48.838;2.322;2024-01-16T03:54:11;18.13;;;16.42;;
819;SDS011;392;48.838;2.322;2024-01-16T03:56:39;16.77;;;15.20;;
819;SDS011;392;48.838;2.322;2024-01-16T03:59:06;18.88;;;17.08;;
819;SDS011;392;48.838;2.322;2024-01-16T04:01:34;17.23;;;15.55;;
819;SDS011;392;48.838;2.322;2024-01-16T04:04:02;18.08;;;16.48;;
819;SDS011;392;48.838;2.322;2024-01-16T04:06:31;18.02;;;16.40;;
819;SDS011;392;48.838;2.322;2024-01-16T04:09:00;18.75;;;17.02;;
819;SDS011;392;48.838;2.322;2024-01-16T04:11:28;18.50;;;16.67;;
819;SDS011;392;48.838;2.322;2024-01-16T04:13:55;18.13;;;16.63;;
819;SDS011;392;48.838;2.322;2024-01-16T04:16:23;18.75;;;17.13;;
819;SDS011;392;48.838;2.322;2024-01-16T04:18:50;21.02;;;19.02;;
819;SDS011;392;48.838;2.322;2024-01-16T04:21:17;19.08;;;17.27;;
819;SDS011;392;48.838;2.322;2024-01-16T04:23:44;18.80;;;17.00;;
819;SDS011;392;48.838;2.322;2024-01-16T04:26:14;20.02;;;18.10;;
819;SDS011;392;48.838;2.322;2024-01-16T04:28:41;18.77;;;17.08;;
819;SDS011;392;48.838;2.322;2024-01-16T04:31:09;17.27;;;15.77;;
819;SDS011;392;48.838;2.322;2024-01-16T04:33:37;18.83;;;17.05;;
819;SDS011;392;48.838;2.322;2024-01-16T04:36:05;18.35;;;16.75;;
819;SDS011;392;48.838;2.322;2024-01-16T04:38:33;18.35;;;16.73;;
819;SDS011;392;48.838;2.322;2024-01-16T04:41:00;19.63;;;17.73;;
819;SDS011;392;48.838;2.322;2024-01-16T04:43:30;18.60;;;16.83;;
819;SDS011;392;48.838;2.322;2024-01-16T04:45:57;17.33;;;15.73;;
819;SDS011;392;48.838;2.322;2024-01-16T04:48:24;15.75;;;14.30;;
819;SDS011;392;48.838;2.322;2024-01-16T04:50:52;17.40;;;15.80;;
819;SDS011;392;48.838;2.322;2024-01-16T04:53:19;16.80;;;15.20;;
819;SDS011;392;48.838;2.322;2024-01-16T04:55:46;19.45;;;17.65;;
819;SDS011;392;48.838;2.322;2024-01-16T04:58:14;19.08;;;17.30;;
819;SDS011;392;48.838;2.322;2024-01-16T05:00:42;21.88;;;19.77;;
819;SDS011;392;48.838;2.322;2024-01-16T05:03:10;19.55;;;17.85;;
819;SDS011;392;48.838;2.322;2024-01-16T05:05:37;20.17;;;18.25;;
819;SDS011;392;48.838;2.322;2024-01-16T05:08:04;20.55;;;18.65;;
819;SDS011;392;48.838;2.322;2024-01-16T05:10:32;20.67;;;18.67;;
819;SDS011;392;48.838;2.322;2024-01-16T05:12:59;19.73;;;18.02;;
819;SDS011;392;48.838;2.322;2024-01-16T05:15:26;19.85;;;18.05;;
819;SDS011;392;48.838;2.322;2024-01-16T05:17:55;19.00;;;17.30;;
819;SDS011;392;48.838;2.322;2024-01-16T05:20:22;20.08;;;18.23;;
819;SDS011;392;48.838;2.322;2024-01-16T05:22:50;20.27;;;18.45;;
819;SDS011;392;48.838;2.322;2024-01-16T05:25:17;20.70;;;18.80;;
819;SDS011;392;48.838;2.322;2024-01-16T05:27:45;19.65;;;17.85;;
819;SDS011;392;48.838;2.322;2024-01-16T05:30:12;19.52;;;17.73;;
819;SDS011;392;48.838;2.322;2024-01-16T05:32:40;19.10;;;17.50;;
819;SDS011;392;48.838;2.322;2024-01-16T05:35:09;18.05;;;16.55;;
819;SDS011;392;48.838;2.322;2024-01-16T05:37:36;18.48;;;16.77;;
819;SDS011;392;48.838;2.322;2024-01-16T05:40:04;18.83;;;17.13;;
819;SDS011;392;48.838;2.322;2024-01-16T05:42:33;19.42;;;17.73;;
819;SDS011;392;48.838;2.322;2024-01-16T05:45:01;20.42;;;18.50;;
819;SDS011;392;48.838;2.322;2024-01-16T05:47:29;20.27;;;18.58;;
819;SDS011;392;48.838;2.322;2024-01-16T05:49:56;20.85;;;18.88;;
819;SDS011;392;48.838;2.322;2024-01-16T05:52:25;19.85;;;17.75;;
819;SDS011;392;48.838;2.322;2024-01-16T05:54:52;19.67;;;17.77;;
819;SDS011;392;48.838;2.322;2024-01-16T05:57:22;19.75;;;17.98;;
819;SDS011;392;48.838;2.322;2024-01-16T05:59:50;20.77;;;18.98;;
819;SDS011;392;48.838;2.322;2024-01-16T06:02:17;19.85;;;17.85;;
819;SDS011;392;48.838;2.322;2024-01-16T06:04:44;19.75;;;18.05;;
819;SDS011;392;48.838;2.322;2024-01-16T06:07:12;19.45;;;17.85;;
819;SDS011;392;48.838;2.322;2024-01-16T06:09:41;18.70;;;16.98;;
819;SDS011;392;48.838;2.322;2024-01-16T06:12:08;20.05;;;18.05;;
819;SDS011;392;48.838;2.322;2024-01-16T06:14:37;19.65;;;17.75;;
819;SDS011;392;48.838;2.322;2024-01-16T06:17:04;21.35;;;19.30;;
819;SDS011;392;48.838;2.322;2024-01-16T06:19:32;20.65;;;18.75;;
819;SDS011;392;48.838;2.322;2024-01-16T06:22:00;18.33;;;16.73;;
819;SDS011;392;48.838;2.322;2024-01-16T06:24:27;20.48;;;18.63;;
819;SDS011;392;48.838;2.322;2024-01-16T06:27:03;22.15;;;19.90;;
819;SDS011;392;48.838;2.322;2024-01-16T06:29:32;22.80;;;20.70;;
819;SDS011;392;48.838;2.322;2024-01-16T06:31:59;25.83;;;23.25;;
819;SDS011;392;48.838;2.322;2024-01-16T06:34:26;24.05;;;21.80;;
819;SDS011;392;48.838;2.322;2024-01-16T06:36:54;22.23;;;20.23;;
819;SDS011;392;48.838;2.322;2024-01-16T06:39:21;23.98;;;21.67;;
819;SDS011;392;48.838;2.322;2024-01-16T06:41:48;23.38;;;21.05;;
819;SDS011;392;48.838;2.322;2024-01-16T06:44:18;20.30;;;18.23;;
819;SDS011;392;48.838;2.322;2024-01-16T06:46:45;20.40;;;18.50;;
819;SDS011;392;48.838;2.322;2024-01-16T06:49:12;15.43;;;14.10;;
819;SDS011;392;48.838;2.322;2024-01-16T06:51:40;13.85;;;12.75;;
819;SDS011;392;48.838;2.322;2024-01-16T06:54:07;15.93;;;14.63;;
819;SDS011;392;48.838;2.322;2024-01-16T06:56:34;15.82;;;14.48;;
819;SDS011;392;48.838;2.322;2024-01-16T06:59:01;17.90;;;16.25;;
819;SDS011;392;48.838;2.322;2024-01-16T07:01:30;17.02;;;15.32;;
819;SDS011;392;48.838;2.322;2024-01-16T07:03:57;19.27;;;17.38;;
819;SDS011;392;48.838;2.322;2024-01-16T07:06:25;15.68;;;14.18;;
819;SDS011;392;48.838;2.322;2024-01-16T07:08:52;16.00;;;14.50;;
819;SDS011;392;48.838;2.322;2024-01-16T07:11:20;17.70;;;16.02;;
819;SDS011;392;48.838;2.322;2024-01-16T07:13:47;23.73;;;21.42;;
819;SDS011;392;48.838;2.322;2024-01-16T07:16:14;25.15;;;22.65;;
819;SDS011;392;48.838;2.322;2024-01-16T07:18:43;26.80;;;23.65;;
819;SDS011;392;48.838;2.322;2024-01-16T07:21:16;25.15;;;22.75;;
819;SDS011;392;48.838;2.322;2024-01-16T07:23:44;25.10;;;22.50;;
819;SDS011;392;48.838;2.322;2024-01-16T07:26:12;16.55;;;14.90;;
819;SDS011;392;48.838;2.322;2024-01-16T07:28:39;19.67;;;17.77;;
819;SDS011;392;48.838;2.322;2024-01-16T07:31:06;23.05;;;20.48;;
819;SDS011;392;48.838;2.322;2024-01-16T07:33:34;18.95;;;17.15;;
819;SDS011;392;48.838;2.322;2024-01-16T07:36:04;19.85;;;18.10;;
819;SDS011;392;48.838;2.322;2024-01-16T07:38:32;16.52;;;14.98;;
819;SDS011;392;48.838;2.322;2024-01-16T07:40:59;17.77;;;15.95;;
819;SDS011;392;48.838;2.322;2024-01-16T07:43:26;21.48;;;19.48;;
819;SDS011;392;48.838;2.322;2024-01-16T07:45:54;20.33;;;18.33;;
819;SDS011;392;48.838;2.322;2024-01-16T07:48:22;27.17;;;24.48;;
819;SDS011;392;48.838;2.322;2024-01-16T07:50:49;24.80;;;22.40;;
819;SDS011;392;48.838;2.322;2024-01-16T07:53:18;24.67;;;21.10;;
819;SDS011;392;48.838;2.322;2024-01-16T07:55:46;24.38;;;21.98;;
819;SDS011;392;48.838;2.322;2024-01-16T07:58:13;26.00;;;23.20;;
819;SDS011;392;48.838;2.322;2024-01-16T08:00:40;22.98;;;20.98;;
819;SDS011;392;48.838;2.322;2024-01-16T08:03:08;26.17;;;23.63;;
819;SDS011;392;48.838;2.322;2024-01-16T08:05:37;17.58;;;15.98;;
819;SDS011;392;48.838;2.322;2024-01-16T08:08:04;16.27;;;14.93;;
819;SDS011;392;48.838;2.322;2024-01-16T08:10:36;22.15;;;19.83;;
819;SDS011;392;48.838;2.322;2024-01-16T08:13:03;16.90;;;15.40;;
819;SDS011;392;48.838;2.322;2024-01-16T08:15:30;17.38;;;15.77;;
819;SDS011;392;48.838;2.322;2024-01-16T08:17:58;17.83;;;16.13;;
819;SDS011;392;48.838;2.322;2024-01-16T08:20:25;17.83;;;16.10;;
819;SDS011;392;48.838;2.322;2024-01-16T08:22:51;19.08;;;17.27;;
819;SDS011;392;48.838;2.322;2024-01-16T08:25:20;18.80;;;16.88;;
819;SDS011;392;48.838;2.322;2024-01-16T08:27:48;20.95;;;18.90;;
819;SDS011;392;48.838;2.322;2024-01-16T08:30:16;29.17;;;26.40;;
819;SDS011;392;48.838;2.322;2024-01-16T08:32:44;25.73;;;23.42;;
819;SDS011;392;48.838;2.322;2024-01-16T08:35:11;26.95;;;24.35;;
819;SDS011;392;48.838;2.322;2024-01-16T08:37:38;28.20;;;25.17;;
819;SDS011;392;48.838;2.322;2024-01-16T08:40:06;26.85;;;24.20;;
819;SDS011;392;48.838;2.322;2024-01-16T08:42:34;26.00;;;23.40;;
819;SDS011;392;48.838;2.322;2024-01-16T08:45:03;26.60;;;24.00;;
819;SDS011;392;48.838;2.322;2024-01-16T08:47:31;26.63;;;23.55;;
819;SDS011;392;48.838;2.322;2024-01-16T08:49:59;25.95;;;23.05;;
819;SDS011;392;48.838;2.322;2024-01-16T08:52:27;26.30;;;23.58;;
819;SDS011;392;48.838;2.322;2024-01-16T08:54:54;27.83;;;25.10;;
819;SDS011;392;48.838;2.322;2024-01-16T08:57:23;28.67;;;25.77;;
819;SDS011;392;48.838;2.322;2024-01-16T08:59:50;28.77;;;25.88;;
819;SDS011;392;48.838;2.322;2024-01-16T09:02:19;31.63;;;28.17;;
819;SDS011;392;48.838;2.322;2024-01-16T09:04:46;30.40;;;27.40;;
819;SDS011;392;48.838;2.322;2024-01-16T09:07:15;32.67;;;29.35;;
819;SDS011;392;48.838;2.322;2024-01-16T09:09:43;33.00;;;29.67;;
819;SDS011;392;48.838;2.322;2024-01-16T09:12:13;31.67;;;28.55;;
819;SDS011;392;48.838;2.322;2024-01-16T09:14:41;35.25;;;29.50;;
819;SDS011;392;48.838;2.322;2024-01-16T09:17:09;33.63;;;30.40;;
819;SDS011;392;48.838;2.322;2024-01-16T09:19:38;36.65;;;32.72;;
819;SDS011;392;48.838;2.322;2024-01-16T09:22:05;37.80;;;33.88;;
819;SDS011;392;48.838;2.322;2024-01-16T09:24:33;40.63;;;35.63;;
819;SDS011;392;48.838;2.322;2024-01-16T09:27:00;39.00;;;35.03;;
819;SDS011;392;48.838;2.322;2024-01-16T09:29:31;37.55;;;33.83;;
819;SDS011;392;48.838;2.322;2024-01-16T09:31:59;41.67;;;37.47;;
819;SDS011;392;48.838;2.322;2024-01-16T09:34:26;34.70;;;30.92;;
819;SDS011;392;48.838;2.322;2024-01-16T09:36:55;37.00;;;33.15;;
819;SDS011;392;48.838;2.322;2024-01-16T09:39:24;39.75;;;35.70;;
819;SDS011;392;48.838;2.322;2024-01-16T09:41:52;35.13;;;31.65;;
819;SDS011;392;48.838;2.322;2024-01-16T09:44:19;38.00;;;34.20;;
819;SDS011;392;48.838;2.322;2024-01-16T09:46:47;35.35;;;31.65;;
819;SDS011;392;48.838;2.322;2024-01-16T09:49:16;31.88;;;28.60;;
819;SDS011;392;48.838;2.322;2024-01-16T09:51:45;28.45;;;25.60;;
819;SDS011;392;48.838;2.322;2024-01-16T09:54:14;35.47;;;31.75;;
819;SDS011;392;48.838;2.322;2024-01-16T09:56:42;29.73;;;26.83;;
819;SDS011;392;48.838;2.322;2024-01-16T09:59:12;28.63;;;25.70;;
819;SDS011;392;48.838;2.322;2024-01-16T10:01:44;32.05;;;28.83;;
819;SDS011;392;48.838;2.322;2024-01-16T10:04:12;31.08;;;27.60;;
819;SDS011;392;48.838;2.322;2024-01-16T10:06:40;32.78;;;28.35;;
819;SDS011;392;48.838;2.322;2024-01-16T10:09:11;33.42;;;27.83;;
819;SDS011;392;48.838;2.322;2024-01-16T10:11:41;33.53;;;30.27;;
819;SDS011;392;48.838;2.322;2024-01-16T10:14:09;32.63;;;29.48;;
819;SDS011;392;48.838;2.322;2024-01-16T10:16:55;31.02;;;28.00;;
819;SDS011;392;48.838;2.322;2024-01-16T10:19:28;32.60;;;29.50;;
819;SDS011;392;48.838;2.322;2024-01-16T10:22:00;29.52;;;26.48;;
819;SDS011;392;48.838;2.322;2024-01-16T10:24:32;33.60;;;29.85;;
819;SDS011;392;48.838;2.322;2024-01-16T10:27:01;31.83;;;28.40;;
819;SDS011;392;48.838;2.322;2024-01-16T10:29:29;31.30;;;28.10;;
819;SDS011;392;48.838;2.322;2024-01-16T10:31:56;29.58;;;26.55;;
819;SDS011;392;48.838;2.322;2024-01-16T10:34:24;29.88;;;26.90;;
819;SDS011;392;48.838;2.322;2024-01-16T10:36:53;31.42;;;28.10;;
819;SDS011;392;48.838;2.322;2024-01-16T10:39:25;31.50;;;28.40;;
819;SDS011;392;48.838;2.322;2024-01-16T10:41:57;32.88;;;29.50;;
819;SDS011;392;48.838;2.322;2024-01-16T10:44:25;33.65;;;30.23;;
819;SDS011;392;48.838;2.322;2024-01-16T10:46:56;29.70;;;26.73;;
819;SDS011;392;48.838;2.322;2024-01-16T10:49:37;40.88;;;36.38;;
819;SDS011;392;48.838;2.322;2024-01-16T10:52:05;32.28;;;29.08;;
819;SDS011;392;48.838;2.322;2024-01-16T10:54:39;33.03;;;29.75;;
819;SDS011;392;48.838;2.322;2024-01-16T10:57:11;26.93;;;24.13;;
819;SDS011;392;48.838;2.322;2024-01-16T10:59:42;25.05;;;22.55;;
819;SDS011;392;48.838;2.322;2024-01-16T11:02:17;18.58;;;16.77;;
819;SDS011;392;48.838;2.322;2024-01-16T11:04:51;22.20;;;19.90;;
819;SDS011;392;48.838;2.322;2024-01-16T11:07:21;21.58;;;19.33;;
819;SDS011;392;48.838;2.322;2024-01-16T11:09:49;21.40;;;19.10;;
819;SDS011;392;48.838;2.322;2024-01-16T11:12:18;19.67;;;17.67;;
819;SDS011;392;48.838;2.322;2024-01-16T11:14:47;18.13;;;16.40;;
819;SDS011;392;48.838;2.322;2024-01-16T11:17:18;15.00;;;13.57;;
819;SDS011;392;48.838;2.322;2024-01-16T11:19:46;15.52;;;14.10;;
819;SDS011;392;48.838;2.322;2024-01-16T11:22:14;16.23;;;14.77;;
819;SDS011;392;48.838;2.322;2024-01-16T11:24:43;17.85;;;16.00;;
819;SDS011;392;48.838;2.322;2024-01-16T11:27:22;17.55;;;15.85;;
819;SDS011;392;48.838;2.322;2024-01-16T11:29:52;16.00;;;14.45;;
819;SDS011;392;48.838;2.322;2024-01-16T11:32:32;17.77;;;15.35;;
819;SDS011;392;48.838;2.322;2024-01-16T11:35:02;18.80;;;16.92;;
819;SDS011;392;48.838;2.322;2024-01-16T11:37:31;19.85;;;17.90;;
819;SDS011;392;48.838;2.322;2024-01-16T11:42:55;16.17;;;14.60;;
819;SDS011;392;48.838;2.322;2024-01-16T11:48:15;17.42;;;15.63;;
819;SDS011;392;48.838;2.322;2024-01-16T11:50:43;14.15;;;12.82;;
819;SDS011;392;48.838;2.322;2024-01-16T11:53:11;14.40;;;13.10;;
819;SDS011;392;48.838;2.322;2024-01-16T11:56:09;13.27;;;11.97;;
819;SDS011;392;48.838;2.322;2024-01-16T11:59:18;6.00;;;5.50;;
819;SDS011;392;48.838;2.322;2024-01-16T12:02:29;4.97;;;4.65;;
819;SDS011;392;48.838;2.322;2024-01-16T12:05:10;3.70;;;3.40;;
819;SDS011;392;48.838;2.322;2024-01-16T12:07:47;3.10;;;2.90;;
819;SDS011;392;48.838;2.322;2024-01-16T12:10:15;3.70;;;3.40;;
819;SDS011;392;48.838;2.322;2024-01-16T12:12:44;3.50;;;3.20;;
819;SDS011;392;48.838;2.322;2024-01-16T12:15:14;4.30;;;4.00;;
819;SDS011;392;48.838;2.322;2024-01-16T12:17:53;4.13;;;3.63;;
819;SDS011;392;48.838;2.322;2024-01-16T12:20:22;2.63;;;2.43;;
819;SDS011;392;48.838;2.322;2024-01-16T12:22:53;4.30;;;4.00;;
819;SDS011;392;48.838;2.322;2024-01-16T12:25:25;4.67;;;4.27;;
819;SDS011;392;48.838;2.322;2024-01-16T12:27:57;4.93;;;4.53;;
819;SDS011;392;48.838;2.322;2024-01-16T12:30:29;7.83;;;6.80;;
819;SDS011;392;48.838;2.322;2024-01-16T12:33:04;6.80;;;6.20;;
819;SDS011;392;48.838;2.322;2024-01-16T12:35:36;4.83;;;4.43;;
819;SDS011;392;48.838;2.322;2024-01-16T12:38:05;5.70;;;5.20;;
819;SDS011;392;48.838;2.322;2024-01-16T12:40:35;6.97;;;6.33;;
819;SDS011;392;48.838;2.322;2024-01-16T12:43:03;8.37;;;7.50;;
819;SDS011;392;48.838;2.322;2024-01-16T12:45:33;9.07;;;8.30;;
819;SDS011;392;48.838;2.322;2024-01-16T12:48:01;9.73;;;8.80;;
819;SDS011;392;48.838;2.322;2024-01-16T12:50:29;8.50;;;7.67;;
819;SDS011;392;48.838;2.322;2024-01-16T12:53:02;9.47;;;8.57;;
819;SDS011;392;48.838;2.322;2024-01-16T12:55:31;10.80;;;9.37;;
819;SDS011;392;48.838;2.322;2024-01-16T12:58:15;8.70;;;7.87;;
819;SDS011;392;48.838;2.322;2024-01-16T13:00:47;9.87;;;7.60;;
819;SDS011;392;48.838;2.322;2024-01-16T13:03:15;8.03;;;7.37;;
819;SDS011;392;48.838;2.322;2024-01-16T13:05:43;9.83;;;8.83;;
819;SDS011;392;48.838;2.322;2024-01-16T13:08:18;9.10;;;8.07;;
819;SDS011;392;48.838;2.322;2024-01-16T13:11:01;9.33;;;8.53;;
819;SDS011;392;48.838;2.322;2024-01-16T13:13:29;9.90;;;9.00;;
819;SDS011;392;48.838;2.322;2024-01-16T13:15:59;9.47;;;8.47;;
819;SDS011;392;48.838;2.322;2024-01-16T13:18:30;9.53;;;8.63;;
819;SDS011;392;48.838;2.322;2024-01-16T13:20:58;9.00;;;8.10;;
819;SDS011;392;48.838;2.322;2024-01-16T13:23:27;10.43;;;9.20;;
819;SDS011;392;48.838;2.322;2024-01-16T13:25:55;10.77;;;8.73;;
819;SDS011;392;48.838;2.322;2024-01-16T13:28:24;10.97;;;9.90;;
819;SDS011;392;48.838;2.322;2024-01-16T13:30:52;10.20;;;9.30;;
819;SDS011;392;48.838;2.322;2024-01-16T13:33:22;12.50;;;11.30;;
819;SDS011;392;48.838;2.322;2024-01-16T13:35:52;17.33;;;13.53;;
819;SDS011;392;48.838;2.322;2024-01-16T13:38:20;12.97;;;11.77;;
819;SDS011;392;48.838;2.322;2024-01-16T13:40:49;13.80;;;12.50;;
819;SDS011;392;48.838;2.322;2024-01-16T13:43:16;13.80;;;12.53;;
819;SDS011;392;48.838;2.322;2024-01-16T13:45:44;14.30;;;12.93;;
819;SDS011;392;48.838;2.322;2024-01-16T13:48:14;13.13;;;12.00;;
819;SDS011;392;48.838;2.322;2024-01-16T13:50:44;13.83;;;12.53;;
819;SDS011;392;48.838;2.322;2024-01-16T13:53:11;12.47;;;11.27;;
819;SDS011;392;48.838;2.322;2024-01-16T13:55:39;13.70;;;12.40;;
819;SDS011;392;48.838;2.322;2024-01-16T13:58:07;14.87;;;13.63;;
819;SDS011;392;48.838;2.322;2024-01-16T14:00:36;13.57;;;12.27;;
819;SDS011;392;48.838;2.322;2024-01-16T14:03:03;15.33;;;13.93;;
819;SDS011;392;48.838;2.322;2024-01-16T14:05:31;13.17;;;11.97;;
819;SDS011;392;48.838;2.322;2024-01-16T14:08:01;13.53;;;12.13;;
819;SDS011;392;48.838;2.322;2024-01-16T14:10:29;13.90;;;12.00;;
819;SDS011;392;48.838;2.322;2024-01-16T14:12:56;13.77;;;12.57;;
819;SDS011;392;48.838;2.322;2024-01-16T14:15:23;13.27;;;12.13;;
819;SDS011;392;48.838;2.322;2024-01-16T14:17:52;13.60;;;12.50;;
819;SDS011;392;48.838;2.322;2024-01-16T14:20:21;13.83;;;12.53;;
819;SDS011;392;48.838;2.322;2024-01-16T14:22:53;11.20;;;10.10;;
819;SDS011;392;48.838;2.322;2024-01-16T14:25:22;10.27;;;9.27;;
819;SDS011;392;48.838;2.322;2024-01-16T14:27:55;9.47;;;8.60;;
819;SDS011;392;48.838;2.322;2024-01-16T14:30:24;9.33;;;8.37;;
819;SDS011;392;48.838;2.322;2024-01-16T14:32:53;11.27;;;8.80;;
819;SDS011;392;48.838;2.322;2024-01-16T14:35:21;8.20;;;7.53;;
819;SDS011;392;48.838;2.322;2024-01-16T14:37:49;8.90;;;8.10;;
819;SDS011;392;48.838;2.322;2024-01-16T14:40:17;10.10;;;9.20;;
819;SDS011;392;48.838;2.322;2024-01-16T14:42:52;8.23;;;7.50;;
819;SDS011;392;48.838;2.322;2024-01-16T14:45:21;8.13;;;7.43;;
819;SDS011;392;48.838;2.322;2024-01-16T14:47:49;8.23;;;7.27;;
819;SDS011;392;48.838;2.322;2024-01-16T14:50:18;10.20;;;7.90;;
819;SDS011;392;48.838;2.322;2024-01-16T14:52:47;8.60;;;7.80;;
819;SDS011;392;48.838;2.322;2024-01-16T14:55:15;7.33;;;6.73;;
819;SDS011;392;48.838;2.322;2024-01-16T14:57:43;7.57;;;6.87;;
819;SDS011;392;48.838;2.322;2024-01-16T15:00:14;8.07;;;7.37;;
819;SDS011;392;48.838;2.322;2024-01-16T15:02:45;7.90;;;7.17;;
819;SDS011;392;48.838;2.322;2024-01-16T15:05:13;7.73;;;7.03;;
819;SDS011;392;48.838;2.322;2024-01-16T15:07:41;7.97;;;7.33;;
819;SDS011;392;48.838;2.322;2024-01-16T15:10:10;7.33;;;6.63;;
819;SDS011;392;48.838;2.322;2024-01-16T15:12:40;8.13;;;7.30;;
819;SDS011;392;48.838;2.322;2024-01-16T15:15:08;11.27;;;8.70;;
819;SDS011;392;48.838;2.322;2024-01-16T15:17:40;9.13;;;8.23;;
819;SDS011;392;48.838;2.322;2024-01-16T15:20:07;10.00;;;9.10;;
819;SDS011;392;48.838;2.322;2024-01-16T15:22:36;10.23;;;9.30;;
819;SDS011;392;48.838;2.322;2024-01-16T15:25:05;12.33;;;10.60;;
819;SDS011;392;48.838;2.322;2024-01-16T15:27:33;11.13;;;10.10;;
819;SDS011;392;48.838;2.322;2024-01-16T15:30:01;13.03;;;10.90;;
819;SDS011;392;48.838;2.322;2024-01-16T15:32:30;10.70;;;9.60;;
819;SDS011;392;48.838;2.322;2024-01-16T15:34:59;12.03;;;10.83;;
819;SDS011;392;48.838;2.322;2024-01-16T15:37:26;13.20;;;10.70;;